Terminal Aerodrome Forecast
Issued by NWS

Home | Current Version | Previous Version | Text Only | Print | Product List | Glossary On
Versions: 1 2 3 4 5 6 7 8 9 10 11 12
000
FTUS46 KMFR 042339
TAFLMT
TAF
KLMT 042339Z 0500/0524 33006KT P6SM -SHRA VCTS BKN060CB BKN120
     FM050400 VRB03KT P6SM VCSH OVC060
     FM052000 27008KT P6SM -SHRA VCTS BKN050CB OVC100=

USA.gov is the U.S. government's official web portal to all federal, state and local government web resources and services.